createdAt,value
2018-09-14T00:01:01.619Z,23.34
2018-09-14T00:03:29.968Z,23.33
2018-09-14T00:05:58.290Z,23.34
2018-09-14T00:08:26.599Z,23.33
2018-09-14T00:10:54.973Z,23.32
2018-09-14T00:15:50.582Z,23.31
2018-09-14T00:18:18.936Z,23.31
2018-09-14T00:20:47.380Z,23.27
2018-09-14T00:23:15.738Z,23.26
2018-09-14T00:25:44.057Z,23.27
2018-09-14T00:28:12.397Z,23.26
2018-09-14T00:30:40.803Z,23.25
2018-09-14T00:33:09.110Z,23.25
2018-09-14T00:35:37.439Z,23.24
2018-09-14T00:38:05.742Z,23.24
2018-09-14T00:40:34.063Z,23.23
2018-09-14T00:43:02.394Z,23.22
2018-09-14T00:45:30.711Z,23.21
2018-09-14T00:47:59.126Z,23.21
2018-09-14T00:50:27.422Z,23.20
2018-09-14T00:52:55.758Z,23.19
2018-09-14T00:55:24.046Z,23.19
2018-09-14T00:57:52.374Z,23.19
2018-09-14T01:00:21.191Z,23.18
2018-09-14T01:02:49.517Z,23.16
2018-09-14T01:05:17.846Z,23.15
2018-09-14T01:07:46.131Z,23.15
2018-09-14T01:10:14.447Z,23.14
2018-09-14T01:12:42.732Z,23.13
2018-09-14T01:15:10.998Z,23.13
2018-09-14T01:17:39.302Z,23.12
2018-09-14T01:20:07.645Z,23.11
2018-09-14T01:22:35.938Z,23.10
2018-09-14T01:25:04.287Z,23.10
2018-09-14T01:27:32.572Z,23.10
2018-09-14T01:30:00.862Z,23.10
2018-09-14T01:32:29.159Z,23.08
2018-09-14T01:34:57.442Z,23.06
2018-09-14T01:37:25.771Z,23.06
2018-09-14T01:39:54.993Z,23.04
2018-09-14T01:42:23.266Z,23.04
2018-09-14T01:44:51.546Z,23.04
2018-09-14T01:47:19.874Z,23.04
2018-09-14T01:49:48.163Z,23.02
2018-09-14T01:52:16.510Z,23.02
2018-09-14T01:54:44.775Z,23.02
2018-09-14T01:57:13.066Z,23.00
2018-09-14T01:59:41.410Z,22.99
2018-09-14T02:02:09.695Z,22.98
2018-09-14T02:04:38.010Z,22.97
2018-09-14T02:07:06.306Z,22.97
2018-09-14T02:09:34.603Z,22.97
2018-09-14T02:12:02.882Z,22.95
2018-09-14T02:14:31.159Z,22.94
2018-09-14T02:16:59.531Z,22.95
2018-09-14T02:19:28.546Z,22.93
2018-09-14T02:21:56.842Z,22.94
2018-09-14T02:24:25.148Z,22.92
2018-09-14T02:26:53.414Z,22.92
2018-09-14T02:29:21.733Z,22.91
2018-09-14T02:31:50.063Z,22.91
2018-09-14T02:34:18.390Z,22.90
2018-09-14T02:36:46.677Z,22.89
2018-09-14T02:39:14.963Z,22.89
2018-09-14T02:41:43.224Z,22.88
2018-09-14T02:44:11.564Z,22.88
2018-09-14T02:46:39.858Z,22.86
2018-09-14T02:49:08.195Z,22.86
2018-09-14T02:51:36.472Z,22.86
2018-09-14T02:54:04.782Z,22.85
2018-09-14T02:56:33.062Z,22.85
2018-09-14T02:59:01.849Z,22.85
2018-09-14T03:01:30.127Z,22.83
2018-09-14T03:03:58.430Z,22.83
2018-09-14T03:06:26.754Z,22.83
2018-09-14T03:08:55.070Z,22.82
2018-09-14T03:11:23.419Z,22.80
2018-09-14T03:13:51.714Z,22.80
2018-09-14T03:16:20.071Z,22.80
2018-09-14T03:18:48.373Z,22.78
2018-09-14T03:21:16.641Z,22.79
2018-09-14T03:23:45.199Z,22.80
2018-09-14T03:26:13.734Z,22.78
2018-09-14T03:28:42.058Z,22.77
2018-09-14T03:31:10.373Z,22.76
2018-09-14T03:33:38.689Z,22.77
2018-09-14T03:36:07.222Z,22.76
2018-09-14T03:38:35.523Z,22.74
2018-09-14T03:41:03.879Z,22.73
2018-09-14T03:43:32.197Z,22.73
2018-09-14T03:46:00.487Z,22.71
2018-09-14T03:48:28.783Z,22.72
2018-09-14T03:50:57.059Z,22.71
2018-09-14T03:53:25.427Z,22.71
2018-09-14T03:55:53.702Z,22.69
2018-09-14T03:58:21.986Z,22.69
2018-09-14T04:00:50.261Z,22.69
2018-09-14T04:03:19.173Z,22.69
2018-09-14T04:05:47.566Z,22.68
2018-09-14T04:08:15.874Z,22.68
2018-09-14T04:10:44.158Z,22.67
2018-09-14T04:13:12.510Z,22.67
2018-09-14T04:15:40.794Z,22.66
2018-09-14T04:18:09.062Z,22.65
2018-09-14T04:20:37.395Z,22.65
2018-09-14T04:23:05.708Z,22.64
2018-09-14T04:25:33.994Z,22.64
2018-09-14T04:28:02.261Z,22.64
2018-09-14T04:30:30.638Z,22.63
2018-09-14T04:32:58.966Z,22.62
2018-09-14T04:35:27.282Z,22.63
2018-09-14T04:37:55.668Z,22.64
2018-09-14T04:40:23.935Z,22.63
2018-09-14T04:42:52.294Z,22.63
2018-09-14T04:45:20.574Z,22.62
2018-09-14T04:47:48.886Z,22.61
2018-09-14T04:50:17.250Z,22.61
2018-09-14T04:52:45.530Z,22.62
2018-09-14T04:55:13.834Z,22.61
2018-09-14T04:57:42.121Z,22.61
2018-09-14T05:00:10.447Z,22.62
2018-09-14T05:02:39.634Z,22.61
2018-09-14T05:05:07.998Z,22.60
2018-09-14T05:07:36.319Z,22.60
2018-09-14T05:10:04.719Z,22.59
2018-09-14T05:12:33.033Z,22.60
2018-09-14T05:15:01.370Z,22.59
2018-09-14T05:17:29.690Z,22.59
2018-09-14T05:19:58.014Z,22.58
2018-09-14T05:22:26.403Z,22.59
2018-09-14T05:24:54.739Z,22.59
2018-09-14T05:27:23.066Z,22.59
2018-09-14T05:29:51.408Z,22.59
2018-09-14T05:32:19.741Z,22.57
2018-09-14T05:34:48.117Z,22.58
2018-09-14T05:37:16.469Z,22.58
2018-09-14T05:39:44.858Z,22.58
2018-09-14T05:42:13.262Z,22.57
2018-09-14T05:44:41.595Z,22.57
2018-09-14T05:47:09.955Z,22.57
2018-09-14T05:49:38.258Z,22.57
2018-09-14T05:52:06.583Z,22.56
2018-09-14T05:54:34.984Z,22.56
2018-09-14T05:57:03.223Z,22.57
2018-09-14T05:59:31.515Z,22.57
2018-09-14T06:01:59.970Z,22.58
2018-09-14T06:04:28.271Z,22.59
2018-09-14T06:06:56.557Z,22.59
2018-09-14T06:09:24.870Z,22.61
2018-09-14T06:11:53.175Z,22.62
2018-09-14T06:14:21.478Z,22.64
2018-09-14T06:16:49.784Z,22.65
2018-09-14T06:19:18.271Z,22.69
2018-09-14T06:21:46.584Z,22.74
2018-09-14T06:24:14.886Z,22.78
2018-09-14T06:26:43.194Z,22.81
2018-09-14T06:29:11.510Z,22.85
2018-09-14T06:31:39.838Z,22.88
2018-09-14T06:34:08.110Z,22.93
2018-09-14T06:36:36.402Z,22.98
2018-09-14T06:39:07.398Z,23.02
2018-09-14T06:41:35.726Z,23.06
2018-09-14T06:44:04.127Z,23.10
2018-09-14T06:46:32.456Z,23.13
2018-09-14T06:49:00.729Z,23.18
2018-09-14T06:51:29.137Z,23.23
2018-09-14T06:53:57.415Z,23.26
2018-09-14T06:56:25.706Z,23.32
2018-09-14T06:58:54.110Z,23.36
2018-09-14T07:01:22.426Z,23.41
2018-09-14T07:03:50.721Z,23.45
2018-09-14T07:06:19.056Z,23.50
2018-09-14T07:08:47.377Z,23.55
2018-09-14T07:11:16.051Z,23.57
2018-09-14T07:13:44.359Z,23.63
2018-09-14T07:16:12.690Z,23.59
2018-09-14T07:18:41.026Z,23.45
2018-09-14T07:21:09.467Z,23.33
2018-09-14T07:23:37.769Z,23.18
2018-09-14T07:26:06.087Z,23.08
2018-09-14T07:28:34.403Z,22.92
2018-09-14T07:31:02.762Z,22.84
2018-09-14T07:33:31.067Z,22.89
2018-09-14T07:35:59.423Z,22.93
2018-09-14T07:38:27.702Z,22.98
2018-09-14T07:40:56.070Z,23.04
2018-09-14T07:43:24.419Z,23.08
2018-09-14T07:45:52.730Z,23.13
2018-09-14T07:48:21.391Z,23.17
2018-09-14T07:50:49.650Z,23.21
2018-09-14T07:53:17.942Z,23.23
2018-09-14T07:55:46.274Z,23.26
2018-09-14T07:58:14.591Z,23.27
2018-09-14T08:00:42.973Z,23.27
2018-09-14T08:03:11.299Z,23.28
2018-09-14T08:05:39.647Z,23.30
2018-09-14T08:08:07.948Z,23.33
2018-09-14T08:10:36.427Z,23.35
2018-09-14T08:13:04.781Z,23.35
2018-09-14T08:15:33.054Z,23.37
2018-09-14T08:18:01.370Z,23.39
2018-09-14T08:20:29.847Z,23.42
2018-09-14T08:22:58.235Z,23.45
2018-09-14T08:25:26.538Z,23.48
2018-09-14T08:27:54.867Z,23.54
2018-09-14T08:30:23.506Z,23.57
2018-09-14T08:32:51.789Z,23.59
2018-09-14T08:35:20.095Z,23.62
2018-09-14T08:37:48.505Z,23.62
2018-09-14T08:40:16.857Z,23.63
2018-09-14T08:42:45.183Z,23.63
2018-09-14T08:45:13.467Z,23.64
2018-09-14T08:47:41.836Z,23.64
2018-09-14T08:50:10.191Z,23.66
2018-09-14T08:52:38.514Z,23.67
2018-09-14T08:55:06.826Z,23.69
2018-09-14T08:57:35.138Z,23.69
2018-09-14T09:00:03.438Z,23.71
2018-09-14T09:02:31.806Z,23.70
2018-09-14T09:05:00.181Z,23.72
2018-09-14T09:07:28.518Z,23.75
2018-09-14T09:09:56.849Z,23.79
2018-09-14T09:12:26.154Z,23.83
2018-09-14T09:14:54.469Z,23.90
2018-09-14T09:17:22.775Z,23.97
2018-09-14T09:19:51.105Z,24.03
2018-09-14T09:22:19.422Z,24.09
2018-09-14T09:24:47.715Z,24.13
2018-09-14T09:27:16.015Z,24.17
2018-09-14T09:29:44.318Z,24.24
2018-09-14T09:32:12.622Z,24.34
2018-09-14T09:34:40.913Z,24.41
2018-09-14T09:37:09.235Z,24.49
2018-09-14T09:39:37.531Z,24.59
2018-09-14T09:42:05.862Z,24.70
2018-09-14T09:44:34.159Z,24.75
2018-09-14T09:47:02.557Z,24.81
2018-09-14T09:49:30.844Z,24.91
2018-09-14T09:51:59.210Z,25.05
2018-09-14T09:54:27.519Z,25.25
2018-09-14T09:56:55.841Z,25.41
2018-09-14T09:59:24.158Z,25.53
2018-09-14T10:01:57.706Z,25.71
2018-09-14T10:04:31.357Z,25.85
2018-09-14T10:06:59.690Z,26.01
2018-09-14T10:09:28.049Z,26.24
2018-09-14T10:11:56.398Z,26.47
2018-09-14T10:14:24.876Z,26.73
2018-09-14T10:16:53.231Z,26.99
2018-09-14T10:19:21.574Z,27.27
2018-09-14T10:21:49.973Z,27.52
2018-09-14T10:24:18.227Z,27.79
2018-09-14T10:26:46.559Z,28.05
2018-09-14T10:29:14.867Z,28.36
2018-09-14T10:31:43.167Z,28.72
2018-09-14T10:34:11.495Z,29.06
2018-09-14T10:36:39.884Z,29.01
2018-09-14T10:39:09.766Z,29.47
2018-09-14T10:41:38.100Z,29.89
2018-09-14T10:44:06.491Z,30.19
2018-09-14T10:46:34.805Z,29.99
2018-09-14T10:49:03.149Z,28.49
2018-09-14T10:51:31.607Z,28.62
2018-09-14T10:53:59.983Z,30.12
2018-09-14T10:56:28.298Z,29.32
2018-09-14T10:58:56.615Z,28.37
2018-09-14T11:01:24.906Z,27.56
2018-09-14T11:03:53.237Z,26.96
2018-09-14T11:06:21.566Z,26.56
2018-09-14T11:08:49.884Z,26.27
2018-09-14T11:11:18.174Z,26.23
2018-09-14T11:13:46.590Z,27.47
2018-09-14T11:16:14.857Z,26.86
2018-09-14T11:18:43.281Z,26.43
2018-09-14T11:21:11.453Z,26.57
2018-09-14T11:23:39.786Z,28.43
2018-09-14T11:26:08.119Z,29.10
2018-09-14T11:28:36.622Z,30.23
2018-09-14T11:31:05.463Z,29.98
2018-09-14T11:33:33.771Z,28.95
2018-09-14T11:36:02.062Z,27.71
2018-09-14T11:38:30.535Z,26.98
2018-09-14T11:40:58.778Z,26.59
2018-09-14T11:43:27.236Z,26.32
2018-09-14T11:45:55.579Z,26.11
2018-09-14T11:48:23.862Z,26.58
2018-09-14T11:50:52.183Z,27.78
2018-09-14T11:53:20.539Z,28.59
2018-09-14T11:55:48.841Z,28.87
2018-09-14T11:58:17.159Z,28.88
2018-09-14T12:00:45.553Z,28.74
2018-09-14T12:03:13.898Z,28.56
2018-09-14T12:05:42.209Z,28.38
2018-09-14T12:08:10.583Z,28.24
2018-09-14T12:10:38.875Z,28.10
2018-09-14T12:13:07.167Z,27.95
2018-09-14T12:15:35.470Z,27.82
2018-09-14T12:18:03.743Z,27.68
2018-09-14T12:20:32.138Z,27.55
2018-09-14T12:23:00.475Z,27.38
2018-09-14T12:25:28.796Z,27.15
2018-09-14T12:28:00.134Z,26.95
2018-09-14T12:30:28.457Z,26.77
2018-09-14T12:32:56.786Z,26.61
2018-09-14T12:35:25.107Z,26.45
2018-09-14T12:37:53.434Z,26.34
2018-09-14T12:40:21.795Z,26.28
2018-09-14T12:42:50.070Z,26.21
2018-09-14T12:45:18.407Z,26.17
2018-09-14T12:47:46.767Z,26.15
2018-09-14T12:50:15.071Z,26.10
2018-09-14T12:52:43.378Z,26.07
2018-09-14T12:55:11.707Z,26.07
2018-09-14T12:57:40.070Z,26.10
2018-09-14T13:00:08.791Z,26.04
2018-09-14T13:02:37.154Z,26.01
2018-09-14T13:05:05.618Z,26.00
2018-09-14T13:07:33.911Z,26.00
2018-09-14T13:10:02.211Z,25.99
2018-09-14T13:12:30.486Z,25.98
2018-09-14T13:14:58.905Z,25.97
2018-09-14T13:17:27.114Z,25.95
2018-09-14T13:19:55.566Z,25.93
2018-09-14T13:22:23.975Z,25.92
2018-09-14T13:24:52.371Z,25.95
2018-09-14T13:27:20.675Z,25.95
2018-09-14T13:29:49.002Z,25.92
2018-09-14T13:32:17.358Z,25.88
2018-09-14T13:34:45.606Z,25.83
2018-09-14T13:37:14.434Z,25.82
2018-09-14T13:39:42.731Z,25.83
2018-09-14T13:42:11.018Z,25.82
2018-09-14T13:44:39.418Z,25.78
2018-09-14T13:47:07.759Z,25.72
2018-09-14T13:49:36.051Z,25.63
2018-09-14T13:52:04.373Z,25.56
2018-09-14T13:54:32.695Z,25.52
2018-09-14T13:57:01.006Z,25.49
2018-09-14T13:59:29.303Z,25.46
2018-09-14T14:01:57.638Z,25.44
2018-09-14T14:04:26.032Z,25.43
2018-09-14T14:06:54.350Z,25.42
2018-09-14T14:09:22.695Z,25.41
2018-09-14T14:11:50.988Z,25.39
2018-09-14T14:14:19.293Z,25.37
2018-09-14T14:16:47.644Z,25.33
2018-09-14T14:19:16.807Z,25.27
2018-09-14T14:21:45.126Z,25.23
2018-09-14T14:24:13.418Z,25.20
2018-09-14T14:26:41.728Z,25.20
2018-09-14T14:29:10.046Z,25.18
2018-09-14T14:31:38.351Z,25.16
2018-09-14T14:34:06.694Z,25.13
2018-09-14T14:36:35.024Z,25.13
2018-09-14T14:39:03.422Z,25.11
2018-09-14T14:41:31.900Z,25.07
2018-09-14T14:44:00.158Z,25.05
2018-09-14T14:46:28.486Z,25.01
2018-09-14T14:48:56.785Z,25.01
2018-09-14T14:51:25.091Z,24.99
2018-09-14T14:53:53.379Z,24.97
2018-09-14T14:56:21.691Z,25.00
2018-09-14T14:58:50.010Z,25.02
2018-09-14T15:01:18.342Z,25.02
2018-09-14T15:03:46.658Z,25.03
2018-09-14T15:06:15.082Z,25.03
2018-09-14T15:08:43.438Z,25.02
2018-09-14T15:11:11.825Z,25.02
2018-09-14T15:13:40.211Z,25.01
2018-09-14T15:16:08.510Z,25.02
2018-09-14T15:18:36.814Z,25.00
2018-09-14T15:21:05.155Z,25.00
2018-09-14T15:23:33.508Z,25.00
2018-09-14T15:26:01.862Z,24.99
2018-09-14T15:28:30.143Z,24.98
2018-09-14T15:30:58.502Z,24.98
2018-09-14T15:33:26.809Z,24.97
2018-09-14T15:35:55.462Z,24.96
2018-09-14T15:38:23.781Z,24.95
2018-09-14T15:43:37.510Z,24.96
2018-09-14T15:46:05.858Z,24.94
2018-09-14T15:48:34.154Z,24.93
2018-09-14T15:51:02.522Z,24.92
2018-09-14T15:53:30.822Z,24.91
2018-09-14T15:55:59.254Z,24.89
2018-09-14T15:58:27.607Z,24.88
2018-09-14T16:00:55.993Z,24.88
2018-09-14T16:03:24.326Z,24.87
2018-09-14T16:05:52.810Z,24.86
2018-09-14T16:08:21.134Z,24.85
2018-09-14T16:10:49.499Z,24.83
2018-09-14T16:13:17.818Z,24.82
2018-09-14T16:15:46.187Z,24.81
2018-09-14T16:18:14.494Z,24.81
2018-09-14T16:20:42.946Z,24.79
2018-09-14T16:23:11.244Z,24.79
2018-09-14T16:25:39.584Z,24.77
2018-09-14T16:28:07.878Z,24.77
2018-09-14T16:30:36.263Z,24.74
2018-09-14T16:33:04.635Z,24.74
2018-09-14T16:35:32.919Z,24.73
2018-09-14T16:38:01.249Z,24.71
2018-09-14T16:40:29.571Z,24.71
2018-09-14T16:42:57.969Z,24.68
2018-09-14T16:45:27.059Z,24.68
2018-09-14T16:47:55.389Z,24.65
2018-09-14T16:50:23.707Z,24.63
2018-09-14T16:52:52.039Z,24.64
2018-09-14T16:55:20.386Z,24.61
2018-09-14T16:57:48.723Z,24.61
2018-09-14T17:00:17.018Z,24.61
2018-09-14T17:02:45.448Z,24.60
2018-09-14T17:05:13.702Z,24.57
2018-09-14T17:07:42.051Z,24.56
2018-09-14T17:10:10.404Z,24.55
2018-09-14T17:12:38.747Z,24.55
2018-09-14T17:15:07.532Z,24.54
2018-09-14T17:17:35.986Z,24.52
2018-09-14T17:20:04.453Z,24.52
2018-09-14T17:22:32.754Z,24.51
2018-09-14T17:25:01.092Z,24.50
2018-09-14T17:27:29.460Z,24.49
2018-09-14T17:29:57.718Z,24.46
2018-09-14T17:32:26.042Z,24.44
2018-09-14T17:34:54.373Z,24.44
2018-09-14T17:37:22.729Z,24.42
2018-09-14T17:39:51.075Z,24.40
2018-09-14T17:42:19.386Z,24.39
2018-09-14T17:44:47.691Z,24.37
2018-09-14T17:47:16.023Z,24.37
2018-09-14T17:49:44.375Z,24.34
2018-09-14T17:52:12.742Z,24.35
2018-09-14T17:54:41.087Z,24.33
2018-09-14T17:57:09.422Z,24.32
2018-09-14T17:59:37.726Z,24.31
2018-09-14T18:02:06.098Z,24.30
2018-09-14T18:04:34.647Z,24.29
2018-09-14T18:07:02.990Z,24.27
2018-09-14T18:09:32.122Z,24.27
2018-09-14T18:12:00.487Z,24.24
2018-09-14T18:14:28.789Z,24.22
2018-09-14T18:16:57.310Z,24.22
2018-09-14T18:19:25.647Z,24.21
2018-09-14T18:21:54.010Z,24.19
2018-09-14T18:24:23.062Z,24.18
2018-09-14T18:26:51.410Z,24.16
2018-09-14T18:29:19.816Z,24.17
2018-09-14T18:31:48.134Z,24.15
2018-09-14T18:34:16.527Z,24.15
2018-09-14T18:36:44.851Z,24.13
2018-09-14T18:39:13.478Z,24.13
2018-09-14T18:41:41.991Z,24.13
2018-09-14T18:44:10.421Z,24.12
2018-09-14T18:46:38.899Z,24.12
2018-09-14T18:49:07.720Z,24.12
2018-09-14T18:51:36.049Z,24.09
2018-09-14T18:54:04.515Z,24.11
2018-09-14T18:56:32.861Z,24.10
2018-09-14T18:59:01.334Z,24.09
2018-09-14T19:01:29.638Z,24.08
2018-09-14T19:03:57.985Z,24.08
2018-09-14T19:06:26.317Z,24.08
2018-09-14T19:08:54.630Z,24.07
2018-09-14T19:11:22.950Z,24.06
2018-09-14T19:13:51.259Z,24.06
2018-09-14T19:16:19.655Z,24.05
2018-09-14T19:18:48.015Z,24.05
2018-09-14T19:21:16.417Z,24.03
2018-09-14T19:23:44.768Z,24.04
2018-09-14T19:26:13.054Z,23.97
2018-09-14T19:28:41.394Z,24.02
2018-09-14T19:31:09.717Z,24.00
2018-09-14T19:33:38.566Z,24.00
2018-09-14T19:36:06.874Z,24.00
2018-09-14T19:38:35.321Z,23.99
2018-09-14T19:41:03.524Z,23.98
2018-09-14T19:43:31.846Z,23.97
2018-09-14T19:46:00.229Z,23.96
2018-09-14T19:48:28.555Z,23.97
2018-09-14T19:50:56.846Z,23.96
2018-09-14T19:53:25.162Z,23.95
2018-09-14T19:55:53.489Z,23.95
2018-09-14T19:58:21.799Z,23.93
2018-09-14T20:00:50.104Z,23.92
2018-09-14T20:03:18.450Z,23.91
2018-09-14T20:05:46.786Z,23.91
2018-09-14T20:08:15.110Z,23.91
2018-09-14T20:10:43.440Z,23.90
2018-09-14T20:13:11.754Z,23.89
2018-09-14T20:15:40.031Z,23.88
2018-09-14T20:18:08.701Z,23.87
2018-09-14T20:20:37.074Z,23.87
2018-09-14T20:23:05.365Z,23.87
2018-09-14T20:25:33.680Z,23.86
2018-09-14T20:28:02.009Z,23.85
2018-09-14T20:30:30.410Z,23.85
2018-09-14T20:32:58.683Z,23.84
2018-09-14T20:35:27.058Z,23.83
2018-09-14T20:37:55.378Z,23.84
2018-09-14T20:40:23.694Z,23.82
2018-09-14T20:42:52.014Z,23.81
2018-09-14T20:45:20.333Z,23.82
2018-09-14T20:47:48.646Z,23.80
2018-09-14T20:50:16.991Z,23.80
2018-09-14T20:52:45.326Z,23.78
2018-09-14T20:55:13.647Z,23.77
2018-09-14T20:57:41.955Z,23.77
2018-09-14T21:00:10.310Z,23.76
2018-09-14T21:02:38.617Z,23.75
2018-09-14T21:05:07.124Z,23.75
2018-09-14T21:07:35.459Z,23.75
2018-09-14T21:10:03.799Z,23.74
2018-09-14T21:12:32.127Z,23.74
2018-09-14T21:15:00.504Z,23.73
2018-09-14T21:17:28.814Z,23.72
2018-09-14T21:19:57.106Z,23.71
2018-09-14T21:22:25.405Z,23.70
2018-09-14T21:24:53.726Z,23.69
2018-09-14T21:27:22.052Z,23.68
2018-09-14T21:29:50.714Z,23.67
2018-09-14T21:32:19.079Z,23.67
2018-09-14T21:34:47.482Z,23.65
2018-09-14T21:37:16.214Z,23.64
2018-09-14T21:39:44.538Z,23.64
2018-09-14T21:42:12.849Z,23.63
2018-09-14T21:44:47.634Z,23.63
2018-09-14T21:47:16.791Z,23.62
2018-09-14T21:49:45.106Z,23.60
2018-09-14T21:52:13.478Z,23.61
2018-09-14T21:54:41.818Z,23.59
2018-09-14T21:57:10.124Z,23.60
2018-09-14T21:59:38.585Z,23.59
2018-09-14T22:02:06.918Z,23.58
2018-09-14T22:04:35.260Z,23.58
2018-09-14T22:07:03.679Z,23.56
2018-09-14T22:09:32.002Z,23.57
2018-09-14T22:12:00.311Z,23.56
2018-09-14T22:14:28.714Z,23.56
2018-09-14T22:16:57.030Z,23.55
2018-09-14T22:19:25.367Z,23.54
2018-09-14T22:21:53.688Z,23.54
2018-09-14T22:24:21.982Z,23.54
2018-09-14T22:26:50.271Z,23.53
2018-09-14T22:29:18.875Z,23.52
2018-09-14T22:31:47.195Z,23.51
2018-09-14T22:34:15.514Z,23.52
2018-09-14T22:36:43.890Z,23.50
2018-09-14T22:39:13.439Z,23.49
2018-09-14T22:41:41.802Z,23.49
2018-09-14T22:44:10.302Z,23.48
2018-09-14T22:46:38.718Z,23.48
2018-09-14T22:49:07.039Z,23.48
2018-09-14T22:51:35.357Z,23.47
2018-09-14T22:54:03.662Z,23.46
2018-09-14T22:56:32.034Z,23.46
2018-09-14T22:59:00.383Z,23.45
2018-09-14T23:01:28.682Z,23.44
2018-09-14T23:03:57.002Z,23.44
2018-09-14T23:06:25.309Z,23.44
2018-09-14T23:08:53.650Z,23.43
2018-09-14T23:11:21.982Z,23.44
2018-09-14T23:13:50.393Z,23.42
2018-09-14T23:16:18.698Z,23.43
2018-09-14T23:18:47.039Z,23.42
2018-09-14T23:21:15.346Z,23.41
2018-09-14T23:23:43.706Z,23.42
2018-09-14T23:26:14.195Z,23.40
2018-09-14T23:28:42.686Z,23.40
2018-09-14T23:31:11.094Z,23.40
2018-09-14T23:33:39.423Z,23.39
2018-09-14T23:36:07.842Z,23.38
2018-09-14T23:38:36.229Z,23.38
2018-09-14T23:41:04.565Z,23.38
2018-09-14T23:43:32.886Z,23.37
2018-09-14T23:46:01.221Z,23.38
2018-09-14T23:48:29.565Z,23.37
2018-09-14T23:50:57.870Z,23.36
2018-09-14T23:53:26.170Z,23.36
2018-09-14T23:55:54.562Z,23.34
2018-09-14T23:58:22.870Z,23.35
